sensor_id;sensor_type;location;lat;lon;timestamp;pressure;altitude;pressure_sealevel;temperature;humidity
54369;BME280;40266;52.434;17.056;2022-09-09T00:01:57;100153.92;;;16.96;97.80
54369;BME280;40266;52.434;17.056;2022-09-09T00:05:14;100149.28;;;16.94;98.15
54369;BME280;40266;52.434;17.056;2022-09-09T00:08:04;100145.53;;;16.92;98.54
54369;BME280;40266;52.434;17.056;2022-09-09T00:10:53;100137.27;;;16.87;97.84
54369;BME280;40266;52.434;17.056;2022-09-09T00:13:52;100136.67;;;16.85;97.84
54369;BME280;40266;52.434;17.056;2022-09-09T00:16:40;100139.40;;;16.84;97.64
54369;BME280;40266;52.434;17.056;2022-09-09T00:19:49;100139.68;;;16.82;97.42
54369;BME280;40266;52.434;17.056;2022-09-09T00:22:40;100136.23;;;16.80;97.19
54369;BME280;40266;52.434;17.056;2022-09-09T00:25:30;100138.60;;;16.79;97.17
54369;BME280;40266;52.434;17.056;2022-09-09T00:28:24;100132.83;;;16.77;97.24
54369;BME280;40266;52.434;17.056;2022-09-09T00:31:13;100133.20;;;16.77;96.99
54369;BME280;40266;52.434;17.056;2022-09-09T00:34:03;100137.16;;;16.76;96.80
54369;BME280;40266;52.434;17.056;2022-09-09T00:36:49;100137.89;;;16.72;96.44
54369;BME280;40266;52.434;17.056;2022-09-09T00:39:42;100140.48;;;16.69;96.33
54369;BME280;40266;52.434;17.056;2022-09-09T00:42:40;100147.84;;;16.66;96.08
54369;BME280;40266;52.434;17.056;2022-09-09T00:45:51;100146.45;;;16.63;95.96
54369;BME280;40266;52.434;17.056;2022-09-09T00:49:03;100145.09;;;16.58;95.76
54369;BME280;40266;52.434;17.056;2022-09-09T00:57:58;100150.67;;;16.45;95.31
54369;BME280;40266;52.434;17.056;2022-09-09T01:00:50;100156.64;;;16.42;95.49
54369;BME280;40266;52.434;17.056;2022-09-09T01:03:38;100156.95;;;16.39;95.72
54369;BME280;40266;52.434;17.056;2022-09-09T01:06:36;100159.49;;;16.38;95.91
54369;BME280;40266;52.434;17.056;2022-09-09T01:09:31;100162.00;;;16.37;96.17
54369;BME280;40266;52.434;17.056;2022-09-09T01:12:25;100161.73;;;16.36;96.51
54369;BME280;40266;52.434;17.056;2022-09-09T01:15:19;100164.24;;;16.35;96.75
54369;BME280;40266;52.434;17.056;2022-09-09T01:18:27;100162.64;;;16.35;96.93
54369;BME280;40266;52.434;17.056;2022-09-09T01:24:53;100169.55;;;16.35;97.10
54369;BME280;40266;52.434;17.056;2022-09-09T01:27:57;100173.19;;;16.32;96.86
54369;BME280;40266;52.434;17.056;2022-09-09T01:30:42;100175.05;;;16.30;96.80
54369;BME280;40266;52.434;17.056;2022-09-09T01:33:28;100176.20;;;16.28;96.53
54369;BME280;40266;52.434;17.056;2022-09-09T01:36:38;100174.86;;;16.27;96.45
54369;BME280;40266;52.434;17.056;2022-09-09T01:39:24;100175.14;;;16.24;96.49
54369;BME280;40266;52.434;17.056;2022-09-09T01:42:16;100175.06;;;16.22;96.50
54369;BME280;40266;52.434;17.056;2022-09-09T01:45:00;100181.63;;;16.21;96.57
54369;BME280;40266;52.434;17.056;2022-09-09T01:48:03;100183.20;;;16.18;96.59
54369;BME280;40266;52.434;17.056;2022-09-09T01:51:08;100179.27;;;16.15;96.46
54369;BME280;40266;52.434;17.056;2022-09-09T01:53:54;100174.31;;;16.12;96.11
54369;BME280;40266;52.434;17.056;2022-09-09T01:57:06;100179.61;;;16.09;95.85
54369;BME280;40266;52.434;17.056;2022-09-09T02:00:09;100181.66;;;16.03;96.02
54369;BME280;40266;52.434;17.056;2022-09-09T02:03:09;100180.23;;;15.96;95.86
54369;BME280;40266;52.434;17.056;2022-09-09T02:09:22;100185.91;;;15.83;95.44
54369;BME280;40266;52.434;17.056;2022-09-09T02:12:13;100186.33;;;15.78;95.20
54369;BME280;40266;52.434;17.056;2022-09-09T02:15:47;100182.44;;;15.71;95.03
54369;BME280;40266;52.434;17.056;2022-09-09T02:18:50;100188.87;;;15.65;94.90
54369;BME280;40266;52.434;17.056;2022-09-09T02:21:42;100187.75;;;15.58;94.94
54369;BME280;40266;52.434;17.056;2022-09-09T02:24:29;100188.20;;;15.52;94.84
54369;BME280;40266;52.434;17.056;2022-09-09T02:27:23;100190.77;;;15.46;94.93
54369;BME280;40266;52.434;17.056;2022-09-09T02:30:07;100195.16;;;15.42;94.86
54369;BME280;40266;52.434;17.056;2022-09-09T02:33:03;100199.21;;;15.38;94.78
54369;BME280;40266;52.434;17.056;2022-09-09T02:36:09;100205.23;;;15.33;94.70
54369;BME280;40266;52.434;17.056;2022-09-09T02:39:05;100207.77;;;15.28;94.67
54369;BME280;40266;52.434;17.056;2022-09-09T02:41:53;100207.10;;;15.23;94.61
54369;BME280;40266;52.434;17.056;2022-09-09T02:48:08;100206.45;;;15.14;94.81
54369;BME280;40266;52.434;17.056;2022-09-09T02:51:29;100208.25;;;15.09;94.81
54369;BME280;40266;52.434;17.056;2022-09-09T02:54:27;100209.17;;;15.04;94.83
54369;BME280;40266;52.434;17.056;2022-09-09T03:00:50;100212.15;;;14.95;94.99
54369;BME280;40266;52.434;17.056;2022-09-09T03:03:31;100212.86;;;14.91;95.28
54369;BME280;40266;52.434;17.056;2022-09-09T03:06:33;100208.36;;;14.90;95.48
54369;BME280;40266;52.434;17.056;2022-09-09T03:09:24;100213.15;;;14.88;95.93
54369;BME280;40266;52.434;17.056;2022-09-09T03:12:19;100216.85;;;14.88;96.27
54369;BME280;40266;52.434;17.056;2022-09-09T03:15:11;100220.46;;;14.90;97.18
54369;BME280;40266;52.434;17.056;2022-09-09T03:17:55;100223.52;;;14.93;97.27
54369;BME280;40266;52.434;17.056;2022-09-09T03:20:39;100231.13;;;14.96;97.56
54369;BME280;40266;52.434;17.056;2022-09-09T03:23:33;100229.84;;;15.01;99.57
54369;BME280;40266;52.434;17.056;2022-09-09T03:26:17;100229.34;;;15.09;99.82
54369;BME280;40266;52.434;17.056;2022-09-09T03:29:04;100227.10;;;15.16;100.00
54369;BME280;40266;52.434;17.056;2022-09-09T03:31:49;100230.40;;;15.21;99.96
54369;BME280;40266;52.434;17.056;2022-09-09T03:34:35;100231.98;;;15.25;100.00
54369;BME280;40266;52.434;17.056;2022-09-09T03:37:20;100233.52;;;15.30;100.00
54369;BME280;40266;52.434;17.056;2022-09-09T03:40:07;100234.90;;;15.35;99.99
54369;BME280;40266;52.434;17.056;2022-09-09T03:42:53;100232.45;;;15.38;100.00
54369;BME280;40266;52.434;17.056;2022-09-09T03:45:36;100231.41;;;15.42;100.00
54369;BME280;40266;52.434;17.056;2022-09-09T03:48:19;100235.48;;;15.45;99.98
54369;BME280;40266;52.434;17.056;2022-09-09T03:51:02;100239.08;;;15.48;100.00
54369;BME280;40266;52.434;17.056;2022-09-09T03:53:47;100242.64;;;15.51;100.00
54369;BME280;40266;52.434;17.056;2022-09-09T03:56:31;100246.35;;;15.55;100.00
54369;BME280;40266;52.434;17.056;2022-09-09T03:59:18;100247.10;;;15.57;100.00
54369;BME280;40266;52.434;17.056;2022-09-09T04:02:03;100249.26;;;15.60;100.00
54369;BME280;40266;52.434;17.056;2022-09-09T04:04:46;100251.42;;;15.63;99.97
54369;BME280;40266;52.434;17.056;2022-09-09T04:07:30;100247.80;;;15.65;100.00
54369;BME280;40266;52.434;17.056;2022-09-09T04:10:14;100253.50;;;15.67;100.00
54369;BME280;40266;52.434;17.056;2022-09-09T04:12:58;100254.48;;;15.69;100.00
54369;BME280;40266;52.434;17.056;2022-09-09T04:15:43;100258.47;;;15.71;99.99
54369;BME280;40266;52.434;17.056;2022-09-09T04:18:47;100257.60;;;15.71;100.00
54369;BME280;40266;52.434;17.056;2022-09-09T04:21:33;100262.19;;;15.71;100.00
54369;BME280;40266;52.434;17.056;2022-09-09T04:24:22;100260.80;;;15.70;100.00
54369;BME280;40266;52.434;17.056;2022-09-09T04:27:11;100261.39;;;15.69;100.00
54369;BME280;40266;52.434;17.056;2022-09-09T04:29:55;100263.02;;;15.68;100.00
54369;BME280;40266;52.434;17.056;2022-09-09T04:32:42;100266.73;;;15.67;100.00
54369;BME280;40266;52.434;17.056;2022-09-09T04:35:36;100268.34;;;15.66;100.00
54369;BME280;40266;52.434;17.056;2022-09-09T04:38:30;100267.72;;;15.65;100.00
54369;BME280;40266;52.434;17.056;2022-09-09T04:41:13;100268.02;;;15.62;100.00
54369;BME280;40266;52.434;17.056;2022-09-09T04:43:58;100267.19;;;15.61;100.00
54369;BME280;40266;52.434;17.056;2022-09-09T04:46:42;100268.50;;;15.59;100.00
54369;BME280;40266;52.434;17.056;2022-09-09T04:49:25;100269.72;;;15.59;100.00
54369;BME280;40266;52.434;17.056;2022-09-09T04:52:12;100272.33;;;15.60;100.00
54369;BME280;40266;52.434;17.056;2022-09-09T04:54:59;100274.23;;;15.61;100.00
54369;BME280;40266;52.434;17.056;2022-09-09T04:58:02;100276.30;;;15.62;100.00
54369;BME280;40266;52.434;17.056;2022-09-09T05:00:45;100278.09;;;15.61;100.00
54369;BME280;40266;52.434;17.056;2022-09-09T05:03:29;100277.70;;;15.62;100.00
54369;BME280;40266;52.434;17.056;2022-09-09T05:06:14;100284.32;;;15.64;100.00
54369;BME280;40266;52.434;17.056;2022-09-09T05:09:11;100286.33;;;15.66;100.00
54369;BME280;40266;52.434;17.056;2022-09-09T05:12:04;100289.63;;;15.67;100.00
54369;BME280;40266;52.434;17.056;2022-09-09T05:14:52;100296.08;;;15.68;100.00
54369;BME280;40266;52.434;17.056;2022-09-09T05:17:35;100295.83;;;15.70;100.00
54369;BME280;40266;52.434;17.056;2022-09-09T05:20:19;100299.27;;;15.72;100.00
54369;BME280;40266;52.434;17.056;2022-09-09T05:23:02;100298.36;;;15.73;100.00
54369;BME280;40266;52.434;17.056;2022-09-09T05:25:55;100300.66;;;15.73;100.00
54369;BME280;40266;52.434;17.056;2022-09-09T05:28:40;100298.67;;;15.74;100.00
54369;BME280;40266;52.434;17.056;2022-09-09T05:31:47;100302.66;;;15.75;100.00
54369;BME280;40266;52.434;17.056;2022-09-09T05:34:42;100301.27;;;15.75;100.00
54369;BME280;40266;52.434;17.056;2022-09-09T05:38:26;100302.23;;;15.73;100.00
54369;BME280;40266;52.434;17.056;2022-09-09T05:41:11;100304.15;;;15.74;100.00
54369;BME280;40266;52.434;17.056;2022-09-09T05:43:57;100308.84;;;15.70;100.00
54369;BME280;40266;52.434;17.056;2022-09-09T05:46:41;100305.09;;;15.67;99.97
54369;BME280;40266;52.434;17.056;2022-09-09T05:49:51;100311.54;;;15.65;99.97
54369;BME280;40266;52.434;17.056;2022-09-09T05:52:44;100312.87;;;15.62;99.99
54369;BME280;40266;52.434;17.056;2022-09-09T05:55:41;100314.46;;;15.62;100.00
54369;BME280;40266;52.434;17.056;2022-09-09T05:58:52;100309.98;;;15.60;100.00
54369;BME280;40266;52.434;17.056;2022-09-09T06:01:56;100311.02;;;15.60;100.00
54369;BME280;40266;52.434;17.056;2022-09-09T06:04:49;100311.78;;;15.63;100.00
54369;BME280;40266;52.434;17.056;2022-09-09T06:07:38;100312.15;;;15.63;100.00
54369;BME280;40266;52.434;17.056;2022-09-09T06:10:45;100314.05;;;15.64;100.00
54369;BME280;40266;52.434;17.056;2022-09-09T06:13:31;100317.77;;;15.67;100.00
54369;BME280;40266;52.434;17.056;2022-09-09T06:16:37;100315.66;;;15.72;100.00
54369;BME280;40266;52.434;17.056;2022-09-09T06:19:53;100315.60;;;15.77;100.00
54369;BME280;40266;52.434;17.056;2022-09-09T06:23:06;100315.65;;;15.80;100.00
54369;BME280;40266;52.434;17.056;2022-09-09T06:25:48;100323.66;;;15.82;100.00
54369;BME280;40266;52.434;17.056;2022-09-09T06:28:32;100322.33;;;15.84;100.00
54369;BME280;40266;52.434;17.056;2022-09-09T06:31:37;100324.79;;;15.93;100.00
54369;BME280;40266;52.434;17.056;2022-09-09T06:34:29;100324.67;;;15.99;100.00
54369;BME280;40266;52.434;17.056;2022-09-09T06:37:13;100325.09;;;16.01;100.00
54369;BME280;40266;52.434;17.056;2022-09-09T06:40:00;100326.38;;;16.04;100.00
54369;BME280;40266;52.434;17.056;2022-09-09T06:42:47;100322.94;;;16.06;99.95
54369;BME280;40266;52.434;17.056;2022-09-09T06:46:04;100322.47;;;16.09;99.87
54369;BME280;40266;52.434;17.056;2022-09-09T06:48:47;100329.23;;;16.15;99.83
54369;BME280;40266;52.434;17.056;2022-09-09T06:51:35;100329.45;;;16.21;99.87
54369;BME280;40266;52.434;17.056;2022-09-09T06:54:27;100324.89;;;16.29;99.76
54369;BME280;40266;52.434;17.056;2022-09-09T06:57:17;100323.39;;;16.34;99.45
54369;BME280;40266;52.434;17.056;2022-09-09T07:00:22;100321.12;;;16.41;99.36
54369;BME280;40266;52.434;17.056;2022-09-09T07:03:06;100320.91;;;16.50;99.10
54369;BME280;40266;52.434;17.056;2022-09-09T07:05:56;100323.23;;;16.63;99.11
54369;BME280;40266;52.434;17.056;2022-09-09T07:08:40;100327.05;;;16.91;98.74
54369;BME280;40266;52.434;17.056;2022-09-09T07:11:25;100325.77;;;17.17;98.75
54369;BME280;40266;52.434;17.056;2022-09-09T07:14:10;100327.10;;;17.46;98.13
54369;BME280;40266;52.434;17.056;2022-09-09T07:17:02;100325.08;;;17.65;97.97
54369;BME280;40266;52.434;17.056;2022-09-09T07:19:49;100326.91;;;17.70;97.07
54369;BME280;40266;52.434;17.056;2022-09-09T07:22:32;100326.83;;;17.75;96.98
54369;BME280;40266;52.434;17.056;2022-09-09T07:25:17;100327.95;;;17.81;96.49
54369;BME280;40266;52.434;17.056;2022-09-09T07:28:01;100325.42;;;17.99;96.07
54369;BME280;40266;52.434;17.056;2022-09-09T07:31:02;100330.92;;;18.08;95.55
54369;BME280;40266;52.434;17.056;2022-09-09T07:33:47;100334.48;;;18.05;94.99
54369;BME280;40266;52.434;17.056;2022-09-09T07:36:36;100336.76;;;17.95;94.50
54369;BME280;40266;52.434;17.056;2022-09-09T07:39:21;100335.75;;;17.94;94.75
54369;BME280;40266;52.434;17.056;2022-09-09T07:42:07;100332.48;;;18.22;94.31
54369;BME280;40266;52.434;17.056;2022-09-09T07:44:52;100332.61;;;18.77;92.91
54369;BME280;40266;52.434;17.056;2022-09-09T07:47:37;100335.87;;;18.88;92.46
54369;BME280;40266;52.434;17.056;2022-09-09T07:50:20;100340.34;;;18.94;92.36
54369;BME280;40266;52.434;17.056;2022-09-09T07:53:06;100341.83;;;18.86;91.40
54369;BME280;40266;52.434;17.056;2022-09-09T07:58:47;100350.54;;;18.63;91.04
54369;BME280;40266;52.434;17.056;2022-09-09T08:01:42;100349.39;;;18.62;90.82
54369;BME280;40266;52.434;17.056;2022-09-09T08:04:28;100349.59;;;18.61;90.87
54369;BME280;40266;52.434;17.056;2022-09-09T08:07:22;100353.33;;;18.61;90.41
54369;BME280;40266;52.434;17.056;2022-09-09T08:10:08;100353.62;;;18.59;90.70
54369;BME280;40266;52.434;17.056;2022-09-09T08:12:56;100356.79;;;18.59;90.80
54369;BME280;40266;52.434;17.056;2022-09-09T08:16:15;100357.84;;;18.59;90.91
54369;BME280;40266;52.434;17.056;2022-09-09T08:19:08;100358.21;;;18.52;90.89
54369;BME280;40266;52.434;17.056;2022-09-09T08:21:54;100356.86;;;18.42;90.73
54369;BME280;40266;52.434;17.056;2022-09-09T08:24:46;100363.09;;;18.34;90.82
54369;BME280;40266;52.434;17.056;2022-09-09T08:27:32;100368.38;;;18.31;91.09
54369;BME280;40266;52.434;17.056;2022-09-09T08:30:24;100371.17;;;18.35;91.11
54369;BME280;40266;52.434;17.056;2022-09-09T08:33:16;100371.16;;;18.48;90.81
54369;BME280;40266;52.434;17.056;2022-09-09T08:36:04;100363.63;;;18.73;90.52
54369;BME280;40266;52.434;17.056;2022-09-09T08:38:58;100364.64;;;18.84;90.09
54369;BME280;40266;52.434;17.056;2022-09-09T08:48:12;100368.77;;;18.98;90.47
54369;BME280;40266;52.434;17.056;2022-09-09T08:50:59;100371.91;;;19.02;90.71
54369;BME280;40266;52.434;17.056;2022-09-09T08:53:51;100362.92;;;19.08;90.54
54369;BME280;40266;52.434;17.056;2022-09-09T08:56:47;100363.49;;;19.13;90.14
54369;BME280;40266;52.434;17.056;2022-09-09T08:59:35;100364.14;;;19.20;89.52
54369;BME280;40266;52.434;17.056;2022-09-09T09:10:04;100369.11;;;19.55;88.52
54369;BME280;40266;52.434;17.056;2022-09-09T09:13:45;100369.56;;;19.66;87.95
54369;BME280;40266;52.434;17.056;2022-09-09T09:25:42;100370.86;;;19.95;87.18
54369;BME280;40266;52.434;17.056;2022-09-09T09:28:41;100369.42;;;20.01;86.55
54369;BME280;40266;52.434;17.056;2022-09-09T09:31:50;100367.27;;;20.08;86.32
54369;BME280;40266;52.434;17.056;2022-09-09T09:34:31;100366.34;;;20.17;85.31
54369;BME280;40266;52.434;17.056;2022-09-09T09:37:31;100373.55;;;20.29;84.50
54369;BME280;40266;52.434;17.056;2022-09-09T09:40:20;100376.30;;;20.36;84.43
54369;BME280;40266;52.434;17.056;2022-09-09T09:43:20;100378.60;;;20.44;83.68
54369;BME280;40266;52.434;17.056;2022-09-09T09:46:23;100377.04;;;20.47;84.02
54369;BME280;40266;52.434;17.056;2022-09-09T09:49:13;100374.48;;;20.45;83.04
54369;BME280;40266;52.434;17.056;2022-09-09T09:52:05;100371.50;;;20.56;83.05
54369;BME280;40266;52.434;17.056;2022-09-09T09:54:50;100371.14;;;20.62;81.62
54369;BME280;40266;52.434;17.056;2022-09-09T09:57:44;100371.56;;;20.72;81.18
54369;BME280;40266;52.434;17.056;2022-09-09T10:00:29;100372.56;;;20.87;82.03
54369;BME280;40266;52.434;17.056;2022-09-09T10:06:08;100372.23;;;21.02;80.83
54369;BME280;40266;52.434;17.056;2022-09-09T10:08:59;100372.88;;;21.09;79.55
54369;BME280;40266;52.434;17.056;2022-09-09T10:12:27;100369.00;;;21.24;80.04
54369;BME280;40266;52.434;17.056;2022-09-09T10:15:35;100368.08;;;21.44;80.03
54369;BME280;40266;52.434;17.056;2022-09-09T10:21:38;100375.38;;;21.78;79.03
54369;BME280;40266;52.434;17.056;2022-09-09T10:34:20;100380.30;;;21.91;75.97
54369;BME280;40266;52.434;17.056;2022-09-09T10:40:48;100387.00;;;21.97;74.81
54369;BME280;40266;52.434;17.056;2022-09-09T10:54:08;100389.60;;;22.26;72.06
54369;BME280;40266;52.434;17.056;2022-09-09T10:57:09;100391.21;;;22.31;71.18
54369;BME280;40266;52.434;17.056;2022-09-09T10:59:58;100391.80;;;22.41;72.10
54369;BME280;40266;52.434;17.056;2022-09-09T11:02:54;100389.16;;;22.48;70.67
54369;BME280;40266;52.434;17.056;2022-09-09T11:05:45;100389.52;;;22.50;68.68
54369;BME280;40266;52.434;17.056;2022-09-09T11:08:32;100384.73;;;22.45;70.14
54369;BME280;40266;52.434;17.056;2022-09-09T11:15:01;100383.31;;;22.45;70.59
54369;BME280;40266;52.434;17.056;2022-09-09T11:18:08;100383.81;;;22.48;70.97
54369;BME280;40266;52.434;17.056;2022-09-09T11:21:22;100385.73;;;22.48;69.12
54369;BME280;40266;52.434;17.056;2022-09-09T11:27:23;100389.48;;;22.66;68.06
54369;BME280;40266;52.434;17.056;2022-09-09T11:30:38;100390.31;;;22.64;67.27
54369;BME280;40266;52.434;17.056;2022-09-09T11:40:22;100386.48;;;22.53;65.43
54369;BME280;40266;52.434;17.056;2022-09-09T11:43:12;100386.71;;;22.69;66.26
54369;BME280;40266;52.434;17.056;2022-09-09T11:46:00;100386.57;;;22.79;64.63
54369;BME280;40266;52.434;17.056;2022-09-09T11:48:58;100383.69;;;22.86;64.36
54369;BME280;40266;52.434;17.056;2022-09-09T11:51:46;100379.52;;;22.95;63.20
54369;BME280;40266;52.434;17.056;2022-09-09T11:54:44;100378.80;;;23.09;62.25
54369;BME280;40266;52.434;17.056;2022-09-09T11:57:35;100374.80;;;23.22;61.80
54369;BME280;40266;52.434;17.056;2022-09-09T12:00:48;100376.84;;;23.36;63.20
54369;BME280;40266;52.434;17.056;2022-09-09T12:09:29;100372.71;;;23.36;62.33
54369;BME280;40266;52.434;17.056;2022-09-09T12:15:01;100369.41;;;23.11;61.57
54369;BME280;40266;52.434;17.056;2022-09-09T12:18:03;100372.55;;;23.00;60.28
54369;BME280;40266;52.434;17.056;2022-09-09T12:24:29;100362.20;;;23.03;61.31
54369;BME280;40266;52.434;17.056;2022-09-09T12:27:40;100360.34;;;23.14;60.16
54369;BME280;40266;52.434;17.056;2022-09-09T12:30:34;100364.18;;;23.27;59.81
54369;BME280;40266;52.434;17.056;2022-09-09T12:33:18;100362.16;;;23.32;60.64
54369;BME280;40266;52.434;17.056;2022-09-09T12:36:23;100359.73;;;23.24;60.57
54369;BME280;40266;52.434;17.056;2022-09-09T12:39:19;100359.83;;;23.13;60.17
54369;BME280;40266;52.434;17.056;2022-09-09T12:42:04;100351.93;;;23.09;60.32
54369;BME280;40266;52.434;17.056;2022-09-09T12:44:58;100349.24;;;23.09;60.56
54369;BME280;40266;52.434;17.056;2022-09-09T12:47:46;100351.88;;;23.10;59.41
54369;BME280;40266;52.434;17.056;2022-09-09T12:50:38;100353.08;;;23.06;59.31
54369;BME280;40266;52.434;17.056;2022-09-09T12:53:34;100354.66;;;22.96;60.07
54369;BME280;40266;52.434;17.056;2022-09-09T12:56:26;100350.59;;;22.93;57.88
54369;BME280;40266;52.434;17.056;2022-09-09T12:59:23;100345.95;;;22.93;57.46
54369;BME280;40266;52.434;17.056;2022-09-09T13:02:19;100345.51;;;23.00;57.67
54369;BME280;40266;52.434;17.056;2022-09-09T13:05:35;100344.40;;;23.03;58.06
54369;BME280;40266;52.434;17.056;2022-09-09T13:08:21;100353.86;;;23.00;57.29
54369;BME280;40266;52.434;17.056;2022-09-09T13:11:11;100349.92;;;23.03;57.52
54369;BME280;40266;52.434;17.056;2022-09-09T13:13:57;100345.64;;;23.05;57.14
54369;BME280;40266;52.434;17.056;2022-09-09T13:16:55;100349.27;;;23.14;57.52
54369;BME280;40266;52.434;17.056;2022-09-09T13:19:43;100352.25;;;23.22;57.19
54369;BME280;40266;52.434;17.056;2022-09-09T13:22:39;100354.61;;;23.18;57.49
54369;BME280;40266;52.434;17.056;2022-09-09T13:25:26;100350.61;;;23.13;57.23
54369;BME280;40266;52.434;17.056;2022-09-09T13:28:22;100350.18;;;23.04;57.36
54369;BME280;40266;52.434;17.056;2022-09-09T13:31:21;100345.04;;;23.09;57.39
54369;BME280;40266;52.434;17.056;2022-09-09T13:34:25;100345.39;;;23.16;57.33
54369;BME280;40266;52.434;17.056;2022-09-09T13:37:23;100346.50;;;23.22;56.85
54369;BME280;40266;52.434;17.056;2022-09-09T13:40:19;100341.42;;;23.21;56.23
54369;BME280;40266;52.434;17.056;2022-09-09T13:43:16;100346.04;;;23.10;57.14
54369;BME280;40266;52.434;17.056;2022-09-09T13:46:06;100351.10;;;22.94;56.81
54369;BME280;40266;52.434;17.056;2022-09-09T13:52:09;100347.08;;;22.66;58.11
54369;BME280;40266;52.434;17.056;2022-09-09T13:54:55;100346.40;;;22.56;58.68
54369;BME280;40266;52.434;17.056;2022-09-09T13:57:50;100348.16;;;22.53;59.16
54369;BME280;40266;52.434;17.056;2022-09-09T14:00:34;100342.43;;;22.49;59.80
54369;BME280;40266;52.434;17.056;2022-09-09T14:03:17;100341.25;;;22.51;60.43
54369;BME280;40266;52.434;17.056;2022-09-09T14:06:00;100337.95;;;22.57;60.53
54369;BME280;40266;52.434;17.056;2022-09-09T14:08:44;100338.86;;;22.64;59.46
54369;BME280;40266;52.434;17.056;2022-09-09T14:11:46;100336.83;;;22.65;59.77
54369;BME280;40266;52.434;17.056;2022-09-09T14:14:38;100333.33;;;22.64;59.48
54369;BME280;40266;52.434;17.056;2022-09-09T14:17:21;100329.35;;;22.65;59.46
54369;BME280;40266;52.434;17.056;2022-09-09T14:20:20;100330.91;;;22.63;59.26
54369;BME280;40266;52.434;17.056;2022-09-09T14:23:10;100325.17;;;22.62;58.60
54369;BME280;40266;52.434;17.056;2022-09-09T14:25:54;100326.19;;;22.62;58.86
54369;BME280;40266;52.434;17.056;2022-09-09T14:28:47;100327.41;;;22.65;59.58
54369;BME280;40266;52.434;17.056;2022-09-09T14:31:49;100325.58;;;22.63;59.31
54369;BME280;40266;52.434;17.056;2022-09-09T14:34:32;100327.90;;;22.58;59.29
54369;BME280;40266;52.434;17.056;2022-09-09T14:37:16;100331.58;;;22.52;58.28
54369;BME280;40266;52.434;17.056;2022-09-09T14:39:59;100329.30;;;22.46;58.08
54369;BME280;40266;52.434;17.056;2022-09-09T14:42:52;100330.81;;;22.43;57.44
54369;BME280;40266;52.434;17.056;2022-09-09T14:45:45;100336.82;;;22.41;56.13
54369;BME280;40266;52.434;17.056;2022-09-09T14:48:33;100328.96;;;22.41;57.55
54369;BME280;40266;52.434;17.056;2022-09-09T14:51:51;100332.42;;;22.38;56.94
54369;BME280;40266;52.434;17.056;2022-09-09T14:54:42;100330.85;;;22.40;57.10
54369;BME280;40266;52.434;17.056;2022-09-09T14:57:34;100329.15;;;22.43;57.03
54369;BME280;40266;52.434;17.056;2022-09-09T15:00:38;100327.55;;;22.44;56.46
54369;BME280;40266;52.434;17.056;2022-09-09T15:03:50;100330.83;;;22.43;57.19
54369;BME280;40266;52.434;17.056;2022-09-09T15:06:45;100326.86;;;22.36;56.62
54369;BME280;40266;52.434;17.056;2022-09-09T15:09:39;100327.16;;;22.31;57.37
54369;BME280;40266;52.434;17.056;2022-09-09T15:12:43;100326.74;;;22.28;57.42
54369;BME280;40266;52.434;17.056;2022-09-09T15:15:26;100329.16;;;22.26;57.20
54369;BME280;40266;52.434;17.056;2022-09-09T15:18:18;100328.13;;;22.26;56.74
54369;BME280;40266;52.434;17.056;2022-09-09T15:21:16;100327.77;;;22.23;56.30
54369;BME280;40266;52.434;17.056;2022-09-09T15:24:03;100327.07;;;22.23;56.55
54369;BME280;40266;52.434;17.056;2022-09-09T15:26:52;100321.83;;;22.22;56.74
54369;BME280;40266;52.434;17.056;2022-09-09T15:29:36;100320.02;;;22.19;57.62
54369;BME280;40266;52.434;17.056;2022-09-09T15:32:21;100309.54;;;22.14;58.28
54369;BME280;40266;52.434;17.056;2022-09-09T15:35:16;100313.98;;;22.04;58.38
54369;BME280;40266;52.434;17.056;2022-09-09T15:38:01;100319.41;;;21.95;58.43
54369;BME280;40266;52.434;17.056;2022-09-09T15:40:44;100325.83;;;21.85;59.64
54369;BME280;40266;52.434;17.056;2022-09-09T15:43:29;100323.77;;;21.74;60.50
54369;BME280;40266;52.434;17.056;2022-09-09T15:49:14;100315.71;;;21.49;61.86
54369;BME280;40266;52.434;17.056;2022-09-09T15:52:00;100315.92;;;21.32;61.89
54369;BME280;40266;52.434;17.056;2022-09-09T15:54:48;100313.09;;;21.18;62.65
54369;BME280;40266;52.434;17.056;2022-09-09T15:57:34;100318.90;;;21.06;62.64
54369;BME280;40266;52.434;17.056;2022-09-09T16:00:17;100321.50;;;20.97;63.40
54369;BME280;40266;52.434;17.056;2022-09-09T16:03:01;100316.23;;;20.87;63.88
54369;BME280;40266;52.434;17.056;2022-09-09T16:05:55;100319.86;;;20.78;64.31
54369;BME280;40266;52.434;17.056;2022-09-09T16:08:46;100320.91;;;20.70;64.95
54369;BME280;40266;52.434;17.056;2022-09-09T16:11:37;100325.64;;;20.63;65.53
54369;BME280;40266;52.434;17.056;2022-09-09T16:14:20;100323.27;;;20.56;66.02
54369;BME280;40266;52.434;17.056;2022-09-09T16:17:06;100322.92;;;20.50;66.27
54369;BME280;40266;52.434;17.056;2022-09-09T16:19:49;100321.06;;;20.42;66.87
54369;BME280;40266;52.434;17.056;2022-09-09T16:22:36;100321.08;;;20.37;67.40
54369;BME280;40266;52.434;17.056;2022-09-09T16:25:22;100323.20;;;20.32;67.64
54369;BME280;40266;52.434;17.056;2022-09-09T16:28:11;100318.23;;;20.26;68.03
54369;BME280;40266;52.434;17.056;2022-09-09T16:30:57;100323.18;;;20.21;68.36
54369;BME280;40266;52.434;17.056;2022-09-09T16:33:52;100329.06;;;20.17;68.74
54369;BME280;40266;52.434;17.056;2022-09-09T16:36:37;100328.33;;;20.12;69.51